createdAt,value
2024-01-14T00:01:00.224Z,56.90
2024-01-14T00:02:01.784Z,57.26
2024-01-14T00:03:03.556Z,57.62
2024-01-14T00:04:05.224Z,57.53
2024-01-14T00:05:08.005Z,57.67
2024-01-14T00:06:09.805Z,57.23
2024-01-14T00:07:11.920Z,57.44
2024-01-14T00:08:13.512Z,57.26
2024-01-14T00:09:15.141Z,57.30
2024-01-14T00:10:16.740Z,57.73
2024-01-14T00:11:18.433Z,57.85
2024-01-14T00:12:20.114Z,57.05
2024-01-14T00:13:21.654Z,56.93
2024-01-14T00:14:23.215Z,57.22
2024-01-14T00:15:24.925Z,57.17
2024-01-14T00:16:26.770Z,57.39
2024-01-14T00:17:31.992Z,57.62
2024-01-14T00:18:35.582Z,56.92
2024-01-14T00:19:37.315Z,57.47
2024-01-14T00:20:38.985Z,57.18
2024-01-14T00:21:40.573Z,57.56
2024-01-14T00:22:42.102Z,57.07
2024-01-14T00:23:43.625Z,56.86
2024-01-14T00:24:45.731Z,57.15
2024-01-14T00:25:47.333Z,57.41
2024-01-14T00:26:49.208Z,56.96
2024-01-14T00:27:50.812Z,56.74
2024-01-14T00:28:54.351Z,57.20
2024-01-14T00:29:59.302Z,57.42
2024-01-14T00:31:01.260Z,57.38
2024-01-14T00:32:03.556Z,56.91
2024-01-14T00:33:05.459Z,57.13
2024-01-14T00:34:07.207Z,57.45
2024-01-14T00:35:08.977Z,57.38
2024-01-14T00:36:10.678Z,58.10
2024-01-14T00:37:12.407Z,58.05
2024-01-14T00:38:15.372Z,57.56
2024-01-14T00:39:17.862Z,58.32
2024-01-14T00:40:19.473Z,57.91
2024-01-14T00:41:21.459Z,57.90
2024-01-14T00:42:23.161Z,57.74
2024-01-14T00:43:24.725Z,57.84
2024-01-14T00:44:27.720Z,58.39
2024-01-14T00:45:29.562Z,57.77
2024-01-14T00:46:32.619Z,57.79
2024-01-14T00:47:35.415Z,57.99
2024-01-14T00:48:37.344Z,58.07
2024-01-14T00:49:38.988Z,57.68
2024-01-14T00:50:40.647Z,58.14
2024-01-14T00:51:42.247Z,58.33
2024-01-14T00:52:43.935Z,58.11
2024-01-14T00:53:45.443Z,58.06
2024-01-14T00:54:46.976Z,58.24
2024-01-14T00:55:48.689Z,58.01
2024-01-14T00:56:50.256Z,57.79
2024-01-14T00:57:51.893Z,58.08
2024-01-14T00:58:53.428Z,57.84
2024-01-14T00:59:55.052Z,58.37
2024-01-14T01:00:56.690Z,58.25
2024-01-14T01:01:58.256Z,58.37
2024-01-14T01:02:59.934Z,58.33
2024-01-14T01:04:01.734Z,58.99
2024-01-14T01:05:05.205Z,59.66
2024-01-14T01:06:06.918Z,59.61
2024-01-14T01:07:09.840Z,60.02
2024-01-14T01:08:12.219Z,60.38
2024-01-14T01:09:13.813Z,60.37
2024-01-14T01:10:15.604Z,60.28
2024-01-14T01:11:20.135Z,59.93
2024-01-14T01:12:21.746Z,59.47
2024-01-14T01:13:23.373Z,59.85
2024-01-14T01:14:24.949Z,60.14
2024-01-14T01:15:26.574Z,59.74
2024-01-14T01:16:28.250Z,59.88
2024-01-14T01:17:29.858Z,60.51
2024-01-14T01:18:31.655Z,60.69
2024-01-14T01:19:33.378Z,61.01
2024-01-14T01:20:35.063Z,60.70
2024-01-14T01:21:36.628Z,60.88
2024-01-14T01:22:38.456Z,60.91
2024-01-14T01:23:40.071Z,61.09
2024-01-14T01:24:41.701Z,61.46
2024-01-14T01:25:43.301Z,61.22
2024-01-14T01:26:44.852Z,62.14
2024-01-14T01:27:46.413Z,62.14
2024-01-14T01:28:47.998Z,62.00
2024-01-14T01:29:49.634Z,61.86
2024-01-14T01:30:51.632Z,61.89
2024-01-14T01:31:58.588Z,61.84
2024-01-14T01:33:06.494Z,61.70
2024-01-14T01:34:08.276Z,61.74
2024-01-14T01:35:10.293Z,61.59
2024-01-14T01:36:11.978Z,61.85
2024-01-14T01:37:13.732Z,61.79
2024-01-14T01:38:15.272Z,61.96
2024-01-14T01:39:16.867Z,62.01
2024-01-14T01:40:18.433Z,62.16
2024-01-14T01:41:20.653Z,62.28
2024-01-14T01:42:22.255Z,62.09
2024-01-14T01:43:23.798Z,62.11
2024-01-14T01:44:25.584Z,62.45
2024-01-14T01:45:27.292Z,62.58
2024-01-14T01:46:28.963Z,63.32
2024-01-14T01:47:31.528Z,63.21
2024-01-14T01:48:34.484Z,63.20
2024-01-14T01:49:36.901Z,63.32
2024-01-14T01:50:38.609Z,63.48
2024-01-14T01:51:43.377Z,63.13
2024-01-14T01:52:45.739Z,63.41
2024-01-14T01:53:47.472Z,63.62
2024-01-14T01:54:50.533Z,63.36
2024-01-14T01:55:53.904Z,63.72
2024-01-14T01:56:56.779Z,63.69
2024-01-14T01:57:58.764Z,63.43
2024-01-14T01:59:01.218Z,63.93
2024-01-14T02:00:04.178Z,63.80
2024-01-14T02:01:07.172Z,63.92
2024-01-14T02:02:09.495Z,63.66
2024-01-14T02:03:12.729Z,63.73
2024-01-14T02:04:17.646Z,63.62
2024-01-14T02:05:22.772Z,63.73
2024-01-14T02:06:25.356Z,63.84
2024-01-14T02:07:27.484Z,64.23
2024-01-14T02:08:29.009Z,64.35
2024-01-14T02:09:30.996Z,64.26
2024-01-14T02:10:32.656Z,64.27
2024-01-14T02:11:38.143Z,64.42
2024-01-14T02:12:39.677Z,64.64
2024-01-14T02:13:41.278Z,64.81
2024-01-14T02:14:42.975Z,65.15
2024-01-14T02:15:44.495Z,64.78
2024-01-14T02:16:46.024Z,64.79
2024-01-14T02:17:47.696Z,64.50
2024-01-14T02:18:49.418Z,64.52
2024-01-14T02:19:51.286Z,64.76
2024-01-14T02:20:53.002Z,64.60
2024-01-14T02:22:22.995Z,64.55
2024-01-14T02:23:28.210Z,64.41
2024-01-14T02:24:31.565Z,64.51
2024-01-14T02:25:33.409Z,64.61
2024-01-14T02:26:35.247Z,64.80
2024-01-14T02:27:37.218Z,64.36
2024-01-14T02:28:39.052Z,64.55
2024-01-14T02:29:41.600Z,64.60
2024-01-14T02:30:45.119Z,64.93
2024-01-14T02:31:47.182Z,64.74
2024-01-14T02:32:50.002Z,64.76
2024-01-14T02:33:51.871Z,65.02
2024-01-14T02:34:53.463Z,64.93
2024-01-14T02:35:55.119Z,64.88
2024-01-14T02:36:56.899Z,64.94
2024-01-14T02:37:58.459Z,65.43
2024-01-14T02:39:00.236Z,65.35
2024-01-14T02:40:01.827Z,65.45
2024-01-14T02:41:03.384Z,65.40
2024-01-14T02:42:05.145Z,65.37
2024-01-14T02:43:06.736Z,65.39
2024-01-14T02:44:08.327Z,65.26
2024-01-14T02:45:10.192Z,65.01
2024-01-14T02:46:11.759Z,65.29
2024-01-14T02:47:13.482Z,65.28
2024-01-14T02:48:15.132Z,64.94
2024-01-14T02:49:16.950Z,64.52
2024-01-14T02:50:18.692Z,64.93
2024-01-14T02:51:22.575Z,65.06
2024-01-14T02:52:25.113Z,65.26
2024-01-14T02:53:26.780Z,65.33
2024-01-14T02:54:28.413Z,65.34
2024-01-14T02:55:29.988Z,65.00
2024-01-14T02:56:31.598Z,64.95
2024-01-14T02:57:34.359Z,64.85
2024-01-14T02:58:35.971Z,64.98
2024-01-14T02:59:39.025Z,65.52
2024-01-14T03:00:40.768Z,65.36
2024-01-14T03:01:48.754Z,66.01
2024-01-14T03:02:50.366Z,65.93
2024-01-14T03:03:52.103Z,65.87
2024-01-14T03:04:53.764Z,65.98
2024-01-14T03:05:55.679Z,66.14
2024-01-14T03:06:57.640Z,66.38
2024-01-14T03:07:59.460Z,66.18
2024-01-14T03:09:01.039Z,65.93
2024-01-14T03:10:02.994Z,65.91
2024-01-14T03:11:05.652Z,66.10
2024-01-14T03:12:07.305Z,66.33
2024-01-14T03:13:09.034Z,66.47
2024-01-14T03:14:10.610Z,66.30
2024-01-14T03:15:12.536Z,66.27
2024-01-14T03:16:14.150Z,66.10
2024-01-14T03:17:15.712Z,65.76
2024-01-14T03:18:17.474Z,65.52
2024-01-14T03:19:19.560Z,65.66
2024-01-14T03:20:21.308Z,65.69
2024-01-14T03:21:22.983Z,65.83
2024-01-14T03:22:24.722Z,65.73
2024-01-14T03:23:26.228Z,65.79
2024-01-14T03:24:27.948Z,65.37
2024-01-14T03:25:29.686Z,65.76
2024-01-14T03:26:31.265Z,66.04
2024-01-14T03:27:32.978Z,65.65
2024-01-14T03:28:34.595Z,65.60
2024-01-14T03:29:36.163Z,65.43
2024-01-14T03:30:37.819Z,65.73
2024-01-14T03:31:39.450Z,65.74
2024-01-14T03:32:41.669Z,65.84
2024-01-14T03:33:44.420Z,65.73
2024-01-14T03:34:46.096Z,65.47
2024-01-14T03:35:47.746Z,65.67
2024-01-14T03:36:49.330Z,65.24
2024-01-14T03:37:51.724Z,65.67
2024-01-14T03:38:53.354Z,65.54
2024-01-14T03:39:55.256Z,65.61
2024-01-14T03:40:56.811Z,65.63
2024-01-14T03:41:58.456Z,65.31
2024-01-14T03:43:00.057Z,65.52
2024-01-14T03:44:01.664Z,65.43
2024-01-14T03:45:03.846Z,65.45
2024-01-14T03:46:05.528Z,65.55
2024-01-14T03:47:07.131Z,65.20
2024-01-14T03:48:08.895Z,65.28
2024-01-14T03:49:10.586Z,65.42
2024-01-14T03:50:12.185Z,65.41
2024-01-14T03:51:13.905Z,65.40
2024-01-14T03:52:15.630Z,65.64
2024-01-14T03:53:17.296Z,65.31
2024-01-14T03:54:18.828Z,65.69
2024-01-14T03:55:20.657Z,65.76
2024-01-14T03:56:22.187Z,65.87
2024-01-14T03:57:23.785Z,66.14
2024-01-14T03:58:25.389Z,66.31
2024-01-14T03:59:26.920Z,66.33
2024-01-14T04:00:28.513Z,66.33
2024-01-14T04:01:30.220Z,66.14
2024-01-14T04:02:31.796Z,65.83
2024-01-14T04:03:33.519Z,65.70
2024-01-14T04:04:35.248Z,65.96
2024-01-14T04:05:36.848Z,65.96
2024-01-14T04:06:38.642Z,65.92
2024-01-14T04:07:40.311Z,66.09
2024-01-14T04:08:41.864Z,66.51
2024-01-14T04:09:43.452Z,66.42
2024-01-14T04:10:45.074Z,66.88
2024-01-14T04:11:46.713Z,67.60
2024-01-14T04:12:48.310Z,67.47
2024-01-14T04:13:49.854Z,67.58
2024-01-14T04:14:51.429Z,67.46
2024-01-14T04:15:53.183Z,67.63
2024-01-14T04:16:54.802Z,67.53
2024-01-14T04:17:56.419Z,67.67
2024-01-14T04:18:58.266Z,68.23
2024-01-14T04:20:01.158Z,67.96
2024-01-14T04:21:02.794Z,67.78
2024-01-14T04:22:04.819Z,67.94
2024-01-14T04:23:06.387Z,67.74
2024-01-14T04:24:09.106Z,67.87
2024-01-14T04:25:10.791Z,68.05
2024-01-14T04:26:12.317Z,67.91
2024-01-14T04:27:14.094Z,67.85
2024-01-14T04:28:15.702Z,67.81
2024-01-14T04:29:17.227Z,67.94
2024-01-14T04:30:18.905Z,67.84
2024-01-14T04:31:21.090Z,67.72
2024-01-14T04:32:22.688Z,67.97
2024-01-14T04:33:24.626Z,67.78
2024-01-14T04:34:26.356Z,67.98
2024-01-14T04:35:27.921Z,67.85
2024-01-14T04:36:30.404Z,67.79
2024-01-14T04:37:32.873Z,67.81
2024-01-14T04:38:34.515Z,67.61
2024-01-14T04:39:36.166Z,67.76
2024-01-14T04:40:37.814Z,67.52
2024-01-14T04:41:39.965Z,67.77
2024-01-14T04:42:41.752Z,67.87
2024-01-14T04:43:43.365Z,67.86
2024-01-14T04:44:44.935Z,67.76
2024-01-14T04:45:46.490Z,67.43
2024-01-14T04:46:48.026Z,67.21
2024-01-14T04:47:49.736Z,67.47
2024-01-14T04:48:51.638Z,67.57
2024-01-14T04:49:53.421Z,67.45
2024-01-14T04:50:55.141Z,67.60
2024-01-14T04:51:56.760Z,67.57
2024-01-14T04:52:58.361Z,67.23
2024-01-14T04:54:00.039Z,67.49
2024-01-14T04:55:01.627Z,67.60
2024-01-14T04:56:11.121Z,67.44
2024-01-14T04:57:12.726Z,66.99
2024-01-14T04:58:14.316Z,67.09
2024-01-14T04:59:16.084Z,67.10
2024-01-14T05:00:17.778Z,67.08
2024-01-14T05:01:19.404Z,67.00
2024-01-14T05:02:21.049Z,66.75
2024-01-14T05:03:23.068Z,66.64
2024-01-14T05:04:24.950Z,66.79
2024-01-14T05:05:26.630Z,66.84
2024-01-14T05:06:28.268Z,66.61
2024-01-14T05:07:29.958Z,67.04
2024-01-14T05:08:31.580Z,66.92
2024-01-14T05:09:33.368Z,67.16
2024-01-14T05:10:35.001Z,67.47
2024-01-14T05:11:36.579Z,67.67
2024-01-14T05:12:38.315Z,67.77
2024-01-14T05:13:39.943Z,67.63
2024-01-14T05:14:41.461Z,67.79
2024-01-14T05:15:43.200Z,67.99
2024-01-14T05:16:44.832Z,68.18
2024-01-14T05:17:47.037Z,68.09
2024-01-14T05:18:48.801Z,68.11
2024-01-14T05:19:50.479Z,67.78
2024-01-14T05:20:52.143Z,67.76
2024-01-14T05:21:54.619Z,67.50
2024-01-14T05:22:56.315Z,67.95
2024-01-14T05:23:58.089Z,67.99
2024-01-14T05:24:59.726Z,68.15
2024-01-14T05:26:04.712Z,67.87
2024-01-14T05:27:06.270Z,67.38
2024-01-14T05:28:07.868Z,67.70
2024-01-14T05:29:09.397Z,68.08
2024-01-14T05:30:12.325Z,67.97
2024-01-14T05:31:14.204Z,68.12
2024-01-14T05:32:17.628Z,68.02
2024-01-14T05:33:19.268Z,67.65
2024-01-14T05:34:21.034Z,67.30
2024-01-14T05:35:22.733Z,67.40
2024-01-14T05:36:24.331Z,67.57
2024-01-14T05:37:25.894Z,67.46
2024-01-14T05:38:27.526Z,67.42
2024-01-14T05:39:29.147Z,67.70
2024-01-14T05:40:30.729Z,67.18
2024-01-14T05:41:32.995Z,67.06
2024-01-14T05:42:34.750Z,67.17
2024-01-14T05:43:36.312Z,67.27
2024-01-14T05:44:37.882Z,67.49
2024-01-14T05:45:40.671Z,67.89
2024-01-14T05:46:42.357Z,67.96
2024-01-14T05:47:43.960Z,68.17
2024-01-14T05:48:45.713Z,68.19
2024-01-14T05:49:47.453Z,68.19
2024-01-14T05:50:49.112Z,68.46
2024-01-14T05:51:51.094Z,68.38
2024-01-14T05:52:52.622Z,68.66
2024-01-14T05:53:54.238Z,68.50
2024-01-14T05:54:55.804Z,68.80
2024-01-14T05:55:59.084Z,69.44
2024-01-14T05:57:01.338Z,70.05
2024-01-14T05:58:02.997Z,70.54
2024-01-14T05:59:04.746Z,70.90
2024-01-14T06:00:07.350Z,70.71
2024-01-14T06:01:09.222Z,70.70
2024-01-14T06:02:11.002Z,70.60
2024-01-14T06:03:12.620Z,71.08
2024-01-14T06:04:14.304Z,71.08
2024-01-14T06:05:17.906Z,71.30
2024-01-14T06:06:20.893Z,70.79
2024-01-14T06:07:23.652Z,70.48
2024-01-14T06:08:25.283Z,70.15
2024-01-14T06:09:26.951Z,69.71
2024-01-14T06:10:29.885Z,69.42
2024-01-14T06:11:31.962Z,69.37
2024-01-14T06:12:33.684Z,69.23
2024-01-14T06:13:35.417Z,68.66
2024-01-14T06:14:37.590Z,68.59
2024-01-14T06:15:39.260Z,68.59
2024-01-14T06:16:40.898Z,68.40
2024-01-14T06:17:42.435Z,68.14
2024-01-14T06:18:44.150Z,68.46
2024-01-14T06:19:46.390Z,68.26
2024-01-14T06:20:49.797Z,67.78
2024-01-14T06:21:51.547Z,67.81
2024-01-14T06:22:53.079Z,68.08
2024-01-14T06:23:54.653Z,68.15
2024-01-14T06:24:56.372Z,68.25
2024-01-14T06:25:57.990Z,68.56
2024-01-14T06:26:59.648Z,68.79
2024-01-14T06:28:03.748Z,68.57
2024-01-14T06:29:05.363Z,68.30
2024-01-14T06:30:08.443Z,68.48
2024-01-14T06:31:10.210Z,68.79
2024-01-14T06:32:11.884Z,69.21
2024-01-14T06:33:14.164Z,69.64
2024-01-14T06:34:15.944Z,70.40
2024-01-14T06:35:19.014Z,71.22
2024-01-14T06:36:21.057Z,71.25
2024-01-14T06:37:22.675Z,70.65
2024-01-14T06:38:24.317Z,70.67
2024-01-14T06:39:25.854Z,70.55
2024-01-14T06:40:32.164Z,70.27
2024-01-14T06:41:41.053Z,70.13
2024-01-14T06:42:42.646Z,69.56
2024-01-14T06:43:44.264Z,69.70
2024-01-14T06:44:45.824Z,69.42
2024-01-14T06:45:47.434Z,69.16
2024-01-14T06:46:49.649Z,68.99
2024-01-14T06:47:51.411Z,68.93
2024-01-14T06:48:53.128Z,68.77
2024-01-14T06:50:03.524Z,68.62
2024-01-14T06:51:12.308Z,68.60
2024-01-14T06:52:13.974Z,68.58
2024-01-14T06:53:15.578Z,68.51
2024-01-14T06:54:18.961Z,67.85
2024-01-14T06:55:22.360Z,67.91
2024-01-14T06:56:23.891Z,68.00
2024-01-14T06:57:25.489Z,67.60
2024-01-14T06:58:27.016Z,67.72
2024-01-14T06:59:28.626Z,67.37
2024-01-14T07:00:31.839Z,67.48
2024-01-14T07:01:33.494Z,67.44
2024-01-14T07:02:35.538Z,67.38
2024-01-14T07:03:37.150Z,67.15
2024-01-14T07:04:39.135Z,66.93
2024-01-14T07:05:41.020Z,66.89
2024-01-14T07:06:42.946Z,66.82
2024-01-14T07:07:45.684Z,66.85
2024-01-14T07:08:47.343Z,66.99
2024-01-14T07:09:48.977Z,67.35
2024-01-14T07:10:50.524Z,67.97
2024-01-14T07:11:52.172Z,68.44
2024-01-14T07:12:53.854Z,69.32
2024-01-14T07:13:55.478Z,69.63
2024-01-14T07:14:57.602Z,71.18
2024-01-14T07:15:59.268Z,72.50
2024-01-14T07:17:01.586Z,73.86
2024-01-14T07:18:03.726Z,74.39
2024-01-14T07:19:05.878Z,74.64
2024-01-14T07:20:08.643Z,74.49
2024-01-14T07:21:12.240Z,75.03
2024-01-14T07:22:13.954Z,75.26
2024-01-14T07:23:41.865Z,75.08
2024-01-14T07:24:37.919Z,74.80
2024-01-14T07:25:39.467Z,71.99
2024-01-14T07:26:41.072Z,69.53
2024-01-14T07:27:42.840Z,69.03
2024-01-14T07:28:45.132Z,68.51
2024-01-14T07:29:46.691Z,65.04
2024-01-14T07:30:48.418Z,63.79
2024-01-14T07:31:50.361Z,62.27
2024-01-14T07:32:52.002Z,59.54
2024-01-14T07:33:54.249Z,57.86
2024-01-14T07:34:56.224Z,54.54
2024-01-14T07:35:57.789Z,54.39
2024-01-14T07:37:00.631Z,52.35
2024-01-14T07:38:02.181Z,50.95
2024-01-14T07:39:05.904Z,49.75
2024-01-14T07:40:08.184Z,49.14
2024-01-14T07:41:13.950Z,48.22
2024-01-14T07:42:16.490Z,47.19
2024-01-14T07:43:18.377Z,46.14
2024-01-14T07:44:20.021Z,45.92
2024-01-14T07:45:21.650Z,45.46
2024-01-14T07:46:23.286Z,44.35
2024-01-14T07:47:24.995Z,44.22
2024-01-14T07:48:27.744Z,42.60
2024-01-14T07:49:29.818Z,43.27
2024-01-14T07:50:31.481Z,42.43
2024-01-14T07:51:33.148Z,40.46
2024-01-14T07:52:34.763Z,39.74
2024-01-14T07:53:36.350Z,38.32
2024-01-14T07:54:37.968Z,38.48
2024-01-14T07:55:39.809Z,39.89
2024-01-14T07:56:41.347Z,39.46
2024-01-14T07:57:42.976Z,36.44
2024-01-14T07:58:44.604Z,36.50
2024-01-14T07:59:46.116Z,37.02
2024-01-14T08:00:55.538Z,36.17
2024-01-14T08:02:03.588Z,37.03
2024-01-14T08:03:05.795Z,35.90
2024-01-14T08:04:07.448Z,35.78
2024-01-14T08:05:12.726Z,36.12
2024-01-14T08:06:21.686Z,35.19
2024-01-14T08:07:23.380Z,34.36
2024-01-14T08:08:25.507Z,34.17
2024-01-14T08:09:27.102Z,33.11
2024-01-14T08:10:28.755Z,33.49
2024-01-14T08:11:30.340Z,33.41
2024-01-14T08:12:31.971Z,33.59
2024-01-14T08:13:33.614Z,33.46
2024-01-14T08:14:35.141Z,32.35
2024-01-14T08:15:45.652Z,32.79
2024-01-14T08:16:55.500Z,31.67
2024-01-14T08:17:57.435Z,31.33
2024-01-14T08:19:00.329Z,30.55
2024-01-14T08:20:02.097Z,30.38
2024-01-14T08:21:09.392Z,30.41
2024-01-14T08:22:10.982Z,30.50
2024-01-14T08:23:15.432Z,29.52
2024-01-14T08:24:17.824Z,29.63
2024-01-14T08:25:19.394Z,29.29
2024-01-14T08:26:21.301Z,27.75
2024-01-14T08:27:22.931Z,28.06
2024-01-14T08:28:25.468Z,28.42
2024-01-14T08:29:27.104Z,28.01
2024-01-14T08:30:28.795Z,27.70
2024-01-14T08:31:30.464Z,27.25
2024-01-14T08:32:32.554Z,27.82
2024-01-14T08:33:34.351Z,27.26
2024-01-14T08:34:36.161Z,26.83
2024-01-14T08:35:37.820Z,26.59
2024-01-14T08:36:39.425Z,26.69
2024-01-14T08:37:52.751Z,25.85
2024-01-14T08:38:54.357Z,26.56
2024-01-14T08:39:56.261Z,27.19
2024-01-14T08:40:57.793Z,27.32
2024-01-14T08:41:59.416Z,27.78
2024-01-14T08:43:01.026Z,27.94
2024-01-14T08:44:07.754Z,27.69
2024-01-14T08:45:10.016Z,27.87
2024-01-14T08:46:11.550Z,27.29
2024-01-14T08:47:13.680Z,27.53
2024-01-14T08:48:16.453Z,27.19
2024-01-14T08:49:18.381Z,26.77
2024-01-14T08:50:20.681Z,26.74
2024-01-14T08:51:22.267Z,26.60
2024-01-14T08:52:23.896Z,27.08
2024-01-14T08:53:25.444Z,26.93
2024-01-14T08:54:27.005Z,26.68
2024-01-14T08:55:29.870Z,26.71
2024-01-14T08:56:31.466Z,27.67
2024-01-14T08:57:33.168Z,27.56
2024-01-14T08:58:34.785Z,27.56
2024-01-14T08:59:36.409Z,27.52
2024-01-14T09:00:40.477Z,25.76
2024-01-14T09:01:42.276Z,26.93
2024-01-14T09:02:43.872Z,26.54
2024-01-14T09:03:45.509Z,27.25
2024-01-14T09:04:47.110Z,26.83
2024-01-14T09:05:48.751Z,27.00
2024-01-14T09:06:50.360Z,26.82
2024-01-14T09:07:51.985Z,26.19
2024-01-14T09:08:53.502Z,26.78
2024-01-14T09:09:55.201Z,26.03
2024-01-14T09:10:56.732Z,26.36
2024-01-14T09:11:58.336Z,27.23
2024-01-14T09:12:59.917Z,26.68
2024-01-14T09:14:01.528Z,25.96
2024-01-14T09:15:03.229Z,25.71
2024-01-14T09:16:06.923Z,26.48
2024-01-14T09:17:08.618Z,26.67
2024-01-14T09:18:10.541Z,26.38
2024-01-14T09:19:13.806Z,26.56
2024-01-14T09:20:15.789Z,26.27
2024-01-14T09:21:18.199Z,27.28
2024-01-14T09:22:19.782Z,28.42
2024-01-14T09:23:21.355Z,28.16
2024-01-14T09:24:23.723Z,28.41
2024-01-14T09:25:25.285Z,28.22
2024-01-14T09:26:26.906Z,28.27
2024-01-14T09:27:31.758Z,28.90
2024-01-14T09:28:34.180Z,29.99
2024-01-14T09:29:35.739Z,30.34
2024-01-14T09:30:37.430Z,31.20
2024-01-14T09:31:39.068Z,30.76
2024-01-14T09:32:40.790Z,31.24
2024-01-14T09:33:44.687Z,31.75
2024-01-14T09:34:46.467Z,30.19
2024-01-14T09:35:48.175Z,30.33
2024-01-14T09:36:49.787Z,29.59
2024-01-14T09:37:51.589Z,28.78
2024-01-14T09:38:53.400Z,30.15
2024-01-14T09:39:54.958Z,29.91
2024-01-14T09:41:14.633Z,30.44
2024-01-14T09:42:33.556Z,29.96
2024-01-14T09:43:38.846Z,30.50
2024-01-14T09:44:41.977Z,30.06
2024-01-14T09:45:47.368Z,29.11
2024-01-14T09:46:50.068Z,29.09
2024-01-14T09:47:51.792Z,29.89
2024-01-14T09:48:56.130Z,30.59
2024-01-14T09:50:00.496Z,30.01
2024-01-14T09:51:04.852Z,30.93
2024-01-14T09:52:08.323Z,30.13
2024-01-14T09:53:12.557Z,29.79
2024-01-14T09:54:14.278Z,30.02
2024-01-14T09:55:16.349Z,30.29
2024-01-14T09:56:18.722Z,29.56
2024-01-14T09:57:21.742Z,29.89
2024-01-14T09:58:24.271Z,28.64
2024-01-14T09:59:27.147Z,28.05
2024-01-14T10:00:30.662Z,28.82
2024-01-14T10:01:33.417Z,28.87
2024-01-14T10:02:35.423Z,29.23
2024-01-14T10:03:37.322Z,28.52
2024-01-14T10:04:42.412Z,28.78
2024-01-14T10:05:45.408Z,27.89
2024-01-14T10:06:48.759Z,27.69
2024-01-14T10:07:50.702Z,29.30
2024-01-14T10:08:52.353Z,28.51
2024-01-14T10:09:54.167Z,29.35
2024-01-14T10:10:58.202Z,28.97
2024-01-14T10:12:00.531Z,28.61
2024-01-14T10:13:04.409Z,29.12
2024-01-14T10:14:06.012Z,28.87
2024-01-14T10:15:08.050Z,28.28
2024-01-14T10:16:49.580Z,28.69
2024-01-14T10:17:35.123Z,27.71
2024-01-14T10:18:38.363Z,27.34
2024-01-14T10:19:40.445Z,27.82
2024-01-14T10:20:42.079Z,28.40
2024-01-14T10:21:43.813Z,28.96
2024-01-14T10:22:47.152Z,28.28
2024-01-14T10:23:48.991Z,29.66
2024-01-14T10:24:54.939Z,28.60
2024-01-14T10:26:02.724Z,28.29
2024-01-14T10:27:06.413Z,28.20
2024-01-14T10:28:08.608Z,28.48
2024-01-14T10:29:10.288Z,28.59
2024-01-14T10:30:14.256Z,29.35
2024-01-14T10:31:17.174Z,29.04
2024-01-14T10:32:20.630Z,28.64
2024-01-14T10:33:25.735Z,28.30
2024-01-14T10:34:28.961Z,27.56
2024-01-14T10:35:31.978Z,27.12
2024-01-14T10:36:34.677Z,27.16
2024-01-14T10:37:36.686Z,27.32
2024-01-14T10:38:38.376Z,27.00
2024-01-14T10:39:41.571Z,26.55
2024-01-14T10:40:43.248Z,27.06
2024-01-14T10:41:45.010Z,28.28
2024-01-14T10:42:47.022Z,28.69
2024-01-14T10:43:48.715Z,28.32
2024-01-14T10:44:50.410Z,28.34
2024-01-14T10:45:55.314Z,27.81
2024-01-14T10:47:00.267Z,27.75
2024-01-14T10:48:11.494Z,27.86
2024-01-14T10:49:13.877Z,27.94
2024-01-14T10:50:19.204Z,27.48
2024-01-14T10:51:22.389Z,27.44
2024-01-14T10:52:27.741Z,26.95
2024-01-14T10:53:51.496Z,27.71
2024-01-14T10:54:57.307Z,27.73
2024-01-14T10:56:08.160Z,26.79
2024-01-14T10:57:15.474Z,27.13
2024-01-14T10:58:23.662Z,26.68
2024-01-14T10:59:28.375Z,27.29
2024-01-14T11:00:35.781Z,27.58
2024-01-14T11:01:45.319Z,26.95
2024-01-14T11:02:47.185Z,27.08
2024-01-14T11:03:51.456Z,27.53
2024-01-14T11:04:55.798Z,27.48
2024-01-14T11:05:57.606Z,27.85
2024-01-14T11:06:59.350Z,27.72
2024-01-14T11:08:04.921Z,28.07
2024-01-14T11:09:06.781Z,28.00
2024-01-14T11:10:15.876Z,28.21
2024-01-14T11:11:23.238Z,28.88
2024-01-14T11:12:57.072Z,29.38
2024-01-14T11:14:09.028Z,28.87
2024-01-14T11:15:20.684Z,29.11
2024-01-14T11:16:29.670Z,29.64
2024-01-14T11:17:59.104Z,29.79
2024-01-14T11:19:20.905Z,30.23
2024-01-14T11:20:44.896Z,30.15
2024-01-14T11:22:30.894Z,31.38
2024-01-14T11:23:37.083Z,30.80
2024-01-14T11:24:38.863Z,31.23
2024-01-14T11:25:47.136Z,30.90
2024-01-14T11:26:49.060Z,29.78
2024-01-14T11:27:52.318Z,30.23
2024-01-14T11:28:55.771Z,30.61
2024-01-14T11:29:59.784Z,31.25
2024-01-14T11:31:04.024Z,31.33
2024-01-14T11:32:06.751Z,31.17
2024-01-14T11:33:31.130Z,30.91
2024-01-14T11:34:47.986Z,30.83
2024-01-14T11:35:49.960Z,32.19
2024-01-14T11:36:55.473Z,31.89
2024-01-14T11:37:57.611Z,31.43
2024-01-14T11:39:06.532Z,32.59
2024-01-14T11:40:08.642Z,33.49
2024-01-14T11:41:32.933Z,32.81
2024-01-14T11:43:04.378Z,33.28
2024-01-14T11:44:10.903Z,33.63
2024-01-14T11:45:39.525Z,33.74
2024-01-14T11:46:42.128Z,33.92
2024-01-14T11:47:46.516Z,34.26
2024-01-14T11:48:48.758Z,34.71
2024-01-14T11:49:53.418Z,34.34
2024-01-14T11:50:56.526Z,34.63
2024-01-14T11:52:07.514Z,34.62
2024-01-14T11:53:09.292Z,34.59
2024-01-14T11:54:13.796Z,34.27
2024-01-14T11:55:18.195Z,33.52
2024-01-14T11:56:30.279Z,34.51
2024-01-14T11:57:33.707Z,35.11
2024-01-14T11:58:35.373Z,34.43
2024-01-14T11:59:42.249Z,34.86
2024-01-14T12:00:48.916Z,34.79
2024-01-14T12:01:50.672Z,35.20
2024-01-14T12:03:08.371Z,35.33
2024-01-14T12:04:11.014Z,35.33
2024-01-14T12:05:30.512Z,36.13
2024-01-14T12:06:43.228Z,36.42
2024-01-14T12:07:45.754Z,36.53
2024-01-14T12:08:47.359Z,37.03
2024-01-14T12:09:56.745Z,36.95
2024-01-14T12:11:02.490Z,37.02
2024-01-14T12:12:07.707Z,37.08
2024-01-14T12:13:09.940Z,37.34
2024-01-14T12:14:11.948Z,37.42
2024-01-14T12:15:15.371Z,37.18
2024-01-14T12:16:17.064Z,38.04
2024-01-14T12:17:18.767Z,37.19
2024-01-14T12:18:20.382Z,37.79
2024-01-14T12:19:22.097Z,38.72
2024-01-14T12:20:24.976Z,38.59
2024-01-14T12:21:32.942Z,39.27
2024-01-14T12:22:38.210Z,39.95
2024-01-14T12:23:39.800Z,40.07
2024-01-14T12:24:43.296Z,39.51
2024-01-14T12:25:45.020Z,40.43
2024-01-14T12:26:49.441Z,40.33
2024-01-14T12:27:51.204Z,40.36
2024-01-14T12:28:52.990Z,40.58
2024-01-14T12:29:56.153Z,41.08
2024-01-14T12:30:58.861Z,40.70
2024-01-14T12:32:06.125Z,39.58
2024-01-14T12:33:12.069Z,40.47
2024-01-14T12:34:14.076Z,40.41
2024-01-14T12:35:16.409Z,40.15
2024-01-14T12:36:19.639Z,41.16
2024-01-14T12:37:23.365Z,41.64
2024-01-14T12:38:25.206Z,41.72
2024-01-14T12:39:28.289Z,41.17
2024-01-14T12:40:31.277Z,42.56
2024-01-14T12:41:47.880Z,41.60
2024-01-14T12:42:54.816Z,41.63
2024-01-14T12:43:57.752Z,41.32
2024-01-14T12:45:01.135Z,41.98
2024-01-14T12:46:05.888Z,41.77
2024-01-14T12:47:08.564Z,42.17
2024-01-14T12:48:10.889Z,42.40
2024-01-14T12:49:15.539Z,42.26
2024-01-14T12:50:18.765Z,42.63
2024-01-14T12:51:21.405Z,42.87
2024-01-14T12:52:22.992Z,42.85
2024-01-14T12:53:25.747Z,42.18
2024-01-14T12:54:27.826Z,42.81
2024-01-14T12:55:31.760Z,43.48
2024-01-14T12:56:38.570Z,43.24
2024-01-14T12:57:46.198Z,42.32
2024-01-14T12:58:47.828Z,42.31
2024-01-14T12:59:49.568Z,42.98
2024-01-14T13:00:51.278Z,43.01
2024-01-14T13:01:53.151Z,42.86
2024-01-14T13:02:58.171Z,43.23
2024-01-14T13:03:59.922Z,43.19
2024-01-14T13:05:02.249Z,43.27
2024-01-14T13:06:06.209Z,43.20
2024-01-14T13:07:12.623Z,43.29
2024-01-14T13:08:15.947Z,43.06
2024-01-14T13:09:17.586Z,43.43
2024-01-14T13:10:20.195Z,42.56
2024-01-14T13:11:21.897Z,42.71
2024-01-14T13:12:23.530Z,43.02
2024-01-14T13:13:25.123Z,42.82
2024-01-14T13:14:30.192Z,42.39
2024-01-14T13:15:31.887Z,42.37
2024-01-14T13:16:41.956Z,43.43
2024-01-14T13:17:46.168Z,42.86
2024-01-14T13:18:47.898Z,42.52
2024-01-14T13:19:49.715Z,42.88
2024-01-14T13:20:51.445Z,43.09
2024-01-14T13:21:53.085Z,43.15
2024-01-14T13:22:54.633Z,42.61
2024-01-14T13:24:05.523Z,43.29
2024-01-14T13:25:11.520Z,43.53
2024-01-14T13:26:13.343Z,43.00
2024-01-14T13:27:14.905Z,42.15
2024-01-14T13:28:22.258Z,42.18
2024-01-14T13:29:23.796Z,42.46
2024-01-14T13:30:25.524Z,42.65
2024-01-14T13:31:28.345Z,42.43
2024-01-14T13:32:32.647Z,42.67
2024-01-14T13:33:34.981Z,42.37